Time;durP1;ratioP1;P1;durP2;ratioP2;P2;SDS_P1;SDS_P2;PMS_P1;PMS_P2;Temp;Humidity;BMP_temperature;BMP_pressure;BME280_temperature;BME280_humidity;BME280_pressure;Samples;Min_cycle;Max_cycle;Signal;HPM_P1;HPM_P2
2024/02/21 00:02:08;;;;;;;1.20;0.57;;;9.50;99.90;;;;;;6125503;23;20450;-74
2024/02/21 00:04:35;;;;;;;0.40;0.40;;;9.50;99.90;;;;;;6126132;23;20067;-75
2024/02/21 00:07:00;;;;;;;2.92;0.82;;;9.60;99.90;;;;;;6126128;23;20024;-75
2024/02/21 00:09:26;;;;;;;0.45;0.45;;;9.50;99.90;;;;;;6101645;23;20013;-74
2024/02/21 00:11:52;;;;;;;0.73;0.73;;;9.40;99.90;;;;;;6126306;23;20072;-74
2024/02/21 00:14:17;;;;;;;0.90;0.90;;;9.40;99.90;;;;;;6101528;23;20021;-75
2024/02/21 00:16:43;;;;;;;0.40;0.40;;;9.30;99.90;;;;;;6125864;23;20017;-75
2024/02/21 00:19:09;;;;;;;2.00;1.90;;;9.20;99.90;;;;;;6101260;23;20022;-75
2024/02/21 00:21:34;;;;;;;0.40;0.40;;;9.10;99.90;;;;;;6126203;23;20053;-75
2024/02/21 00:24:00;;;;;;;0.30;0.30;;;9.10;99.90;;;;;;6126238;23;20462;-75
2024/02/21 00:26:26;;;;;;;0.77;0.77;;;9.10;99.90;;;;;;6101237;23;20325;-75
2024/02/21 00:28:53;;;;;;;0.60;0.60;;;9.10;99.90;;;;;;6101378;23;20018;-75
2024/02/21 00:31:18;;;;;;;0.60;0.60;;;9.00;99.90;;;;;;6125411;23;20050;-75
2024/02/21 00:33:44;;;;;;;0.40;0.40;;;9.00;99.90;;;;;;6126731;23;20005;-75
2024/02/21 00:36:10;;;;;;;0.52;0.52;;;9.00;99.90;;;;;;6101749;23;20459;-75
2024/02/21 00:38:35;;;;;;;0.73;0.73;;;9.00;99.90;;;;;;6125664;23;20053;-76
2024/02/21 00:41:01;;;;;;;0.55;0.55;;;9.00;99.90;;;;;;6101546;23;20014;-76
2024/02/21 00:43:27;;;;;;;0.50;0.50;;;8.90;99.90;;;;;;6125055;23;20076;-76
2024/02/21 00:45:52;;;;;;;0.30;0.30;;;8.90;99.90;;;;;;6101560;23;20017;-76
2024/02/21 00:48:18;;;;;;;0.40;0.40;;;8.90;99.90;;;;;;6100346;23;20022;-75
2024/02/21 00:50:44;;;;;;;0.70;0.70;;;8.80;99.90;;;;;;6125592;23;20044;-76
2024/02/21 00:53:10;;;;;;;;;;;8.80;99.90;;;;;;6126381;23;20041;-75
2024/02/21 00:55:35;;;;;;;0.88;0.88;;;8.80;99.90;;;;;;6125003;23;19912;-75
2024/02/21 00:58:01;;;;;;;0.88;0.88;;;8.80;99.90;;;;;;6125726;23;20070;-75
2024/02/21 01:00:27;;;;;;;0.63;0.63;;;8.80;99.90;;;;;;6125507;23;20014;-76
2024/02/21 01:02:52;;;;;;;0.45;0.45;;;8.80;99.90;;;;;;6101329;23;20459;-76
2024/02/21 01:05:19;;;;;;;1.27;1.17;;;8.80;99.90;;;;;;6125639;23;20029;-75
2024/02/21 01:07:45;;;;;;;0.77;0.77;;;8.80;99.90;;;;;;6126099;23;20030;-74
2024/02/21 01:10:11;;;;;;;0.70;0.70;;;8.80;99.90;;;;;;6152141;23;20408;-76
2024/02/21 01:12:37;;;;;;;0.88;0.88;;;8.80;99.90;;;;;;6151903;23;20010;-75
2024/02/21 01:15:03;;;;;;;0.40;0.40;;;8.80;99.90;;;;;;6101220;23;20017;-75
2024/02/21 01:17:29;;;;;;;0.55;0.52;;;8.80;99.90;;;;;;6100874;23;20025;-75
2024/02/21 01:19:55;;;;;;;1.73;0.85;;;8.80;99.90;;;;;;6101153;23;20084;-75
2024/02/21 01:22:20;;;;;;;1.25;0.98;;;8.80;99.90;;;;;;6151247;23;20018;-75
2024/02/21 01:24:46;;;;;;;0.63;0.63;;;8.80;99.90;;;;;;6126163;23;20048;-75
2024/02/21 01:27:12;;;;;;;0.50;0.50;;;8.90;99.90;;;;;;6125534;23;20022;-75
2024/02/21 01:29:37;;;;;;;0.90;0.63;;;8.80;99.90;;;;;;6100703;23;20272;-75
2024/02/21 01:32:03;;;;;;;0.50;0.50;;;8.80;99.90;;;;;;6125581;23;20089;-77
2024/02/21 01:34:29;;;;;;;1.38;1.27;;;8.80;99.90;;;;;;6100840;23;20096;-75
2024/02/21 01:36:55;;;;;;;0.82;0.77;;;8.70;99.90;;;;;;6126031;23;20451;-75
2024/02/21 01:39:21;;;;;;;1.15;1.05;;;8.70;99.90;;;;;;6151423;23;20050;-75
2024/02/21 01:41:47;;;;;;;0.40;0.40;;;8.70;99.90;;;;;;6125185;23;20451;-76
2024/02/21 01:44:13;;;;;;;1.65;1.58;;;8.60;99.90;;;;;;6125810;23;20022;-76
2024/02/21 01:46:39;;;;;;;0.70;0.70;;;8.60;99.90;;;;;;6149620;23;20014;-76
2024/02/21 01:49:05;;;;;;;0.50;0.50;;;8.60;99.90;;;;;;6100494;23;20025;-75
2024/02/21 01:51:31;;;;;;;0.55;0.55;;;8.60;99.90;;;;;;6125229;23;20089;-75
2024/02/21 01:53:57;;;;;;;;;;;8.50;99.90;;;;;;6126407;23;20009;-75
2024/02/21 01:56:24;;;;;;;1.27;1.27;;;8.50;99.90;;;;;;6100256;23;19924;-75
2024/02/21 01:58:51;;;;;;;0.60;0.60;;;8.50;99.90;;;;;;6149916;23;20092;-76
2024/02/21 02:01:17;;;;;;;0.50;0.50;;;8.50;99.90;;;;;;6149303;23;20027;-76
2024/02/21 02:03:45;;;;;;;1.27;1.27;;;8.50;99.90;;;;;;6099883;23;20021;-76
2024/02/21 02:06:10;;;;;;;0.50;0.50;;;8.50;99.90;;;;;;6124538;23;20017;-76
2024/02/21 02:08:36;;;;;;;0.50;0.50;;;8.50;99.90;;;;;;6124236;23;20017;-77
2024/02/21 02:11:02;;;;;;;0.40;0.40;;;8.50;99.90;;;;;;6124576;23;20021;-77
2024/02/21 02:13:28;;;;;;;0.52;0.52;;;8.50;99.90;;;;;;6124756;23;20384;-76
2024/02/21 02:15:54;;;;;;;1.45;1.02;;;8.50;99.90;;;;;;6125090;23;20009;-77
2024/02/21 02:18:20;;;;;;;0.65;0.65;;;8.50;99.90;;;;;;6100001;23;20021;-76
2024/02/21 02:20:47;;;;;;;0.50;0.50;;;8.50;99.90;;;;;;6100166;23;20120;-76
2024/02/21 02:23:21;;;;;;;0.50;0.50;;;8.50;99.90;;;;;;6100438;23;20028;-76
2024/02/21 02:25:51;;;;;;;1.65;1.55;;;8.50;99.90;;;;;;6150810;23;20029;-75
2024/02/21 02:28:18;;;;;;;0.60;0.60;;;8.50;99.90;;;;;;6099823;23;20018;-76
2024/02/21 02:30:43;;;;;;;;;;;8.50;99.90;;;;;;6100095;23;20020;-76
2024/02/21 02:33:09;;;;;;;0.50;0.50;;;8.60;99.90;;;;;;6124207;23;19991;-77
2024/02/21 02:35:36;;;;;;;;;;;8.60;99.90;;;;;;6150991;23;20044;-76
2024/02/21 02:38:02;;;;;;;0.68;0.68;;;8.60;99.90;;;;;;6100056;23;19971;-76
2024/02/21 02:40:28;;;;;;;0.50;0.50;;;8.50;99.90;;;;;;6148260;23;20144;-76
2024/02/21 02:42:57;;;;;;;0.50;0.50;;;8.50;99.90;;;;;;6099730;23;20401;-76
2024/02/21 02:45:26;;;;;;;0.75;0.75;;;8.60;99.90;;;;;;6100423;23;20061;-76
2024/02/21 02:47:56;;;;;;;0.50;0.50;;;8.60;99.90;;;;;;6124093;23;20017;-76
2024/02/21 02:50:23;;;;;;;0.40;0.40;;;8.60;99.90;;;;;;6125156;23;20014;-76
2024/02/21 02:52:48;;;;;;;0.52;0.52;;;8.60;99.90;;;;;;6099485;23;20074;-76
2024/02/21 02:55:14;;;;;;;0.75;0.73;;;8.60;99.90;;;;;;6100599;23;20013;-75
2024/02/21 02:57:43;;;;;;;4.85;1.15;;;8.60;99.90;;;;;;6123345;23;20092;-76
2024/02/21 03:00:12;;;;;;;0.55;0.55;;;8.60;99.90;;;;;;6100992;23;20028;-76
2024/02/21 03:02:39;;;;;;;0.50;0.50;;;8.60;99.90;;;;;;6124474;23;20018;-75
2024/02/21 03:05:16;;;;;;;3.10;0.88;;;8.60;99.90;;;;;;6099925;23;20466;-76
2024/02/21 03:07:42;;;;;;;0.82;0.82;;;8.60;99.90;;;;;;6148641;23;20025;-76
2024/02/21 03:10:08;;;;;;;;;;;8.60;99.90;;;;;;6100813;23;20017;-74
2024/02/21 03:12:33;;;;;;;0.40;0.40;;;8.60;99.90;;;;;;6123698;23;19927;-75
2024/02/21 03:14:59;;;;;;;1.02;1.02;;;8.60;99.90;;;;;;6124226;23;20019;-75
2024/02/21 03:17:27;;;;;;;3.75;1.85;;;8.60;99.90;;;;;;6100661;23;20092;-75
2024/02/21 03:19:53;;;;;;;2.05;1.75;;;8.60;99.90;;;;;;6126025;23;20019;-75
2024/02/21 03:22:18;;;;;;;0.50;0.50;;;8.60;99.90;;;;;;6126398;23;20072;-75
2024/02/21 03:24:44;;;;;;;0.75;0.65;;;8.60;99.90;;;;;;6096435;23;20018;-75
2024/02/21 03:27:10;;;;;;;;;;;8.60;99.90;;;;;;6120359;23;20076;-75
2024/02/21 03:29:36;;;;;;;0.70;0.70;;;8.60;99.90;;;;;;6077538;23;19912;-76
2024/02/21 03:32:02;;;;;;;0.95;0.95;;;8.60;99.90;;;;;;6126450;23;20469;-75
2024/02/21 03:34:27;;;;;;;0.45;0.45;;;8.60;99.90;;;;;;6101612;23;20495;-75
2024/02/21 03:36:53;;;;;;;0.65;0.65;;;8.60;99.90;;;;;;6126122;23;20423;-75
2024/02/21 03:39:19;;;;;;;0.50;0.50;;;8.60;99.90;;;;;;6101427;23;20017;-76
2024/02/21 03:41:44;;;;;;;0.30;0.30;;;8.70;99.90;;;;;;6126363;23;20041;-76
2024/02/21 03:44:10;;;;;;;0.80;0.80;;;8.70;99.90;;;;;;6126732;23;20020;-75
2024/02/21 03:46:36;;;;;;;0.40;0.40;;;8.70;99.90;;;;;;6125696;23;20014;-75
2024/02/21 03:49:01;;;;;;;0.60;0.60;;;8.70;99.90;;;;;;6101960;23;20013;-75
2024/02/21 03:51:27;;;;;;;0.40;0.40;;;8.70;99.90;;;;;;6126022;23;20443;-75
2024/02/21 03:53:53;;;;;;;1.10;1.10;;;8.70;99.90;;;;;;6101053;23;20351;-75
2024/02/21 03:56:18;;;;;;;0.30;0.30;;;8.70;99.90;;;;;;6126370;23;20092;-75
2024/02/21 03:58:44;;;;;;;1.80;1.70;;;8.70;99.90;;;;;;6101102;23;20021;-75
2024/02/21 04:01:10;;;;;;;0.52;0.52;;;8.70;99.90;;;;;;6101501;23;20463;-75
2024/02/21 04:03:35;;;;;;;0.50;0.50;;;8.70;99.90;;;;;;6101883;23;20020;-75
2024/02/21 04:06:01;;;;;;;0.40;0.40;;;8.70;99.90;;;;;;6102119;23;20069;-75
2024/02/21 04:08:27;;;;;;;0.70;0.70;;;8.70;99.90;;;;;;6125834;23;20021;-75
2024/02/21 04:10:52;;;;;;;0.50;0.50;;;9.40;99.90;;;;;;6100917;23;20125;-75
2024/02/21 04:13:18;;;;;;;0.60;0.60;;;8.70;99.90;;;;;;6127034;23;20076;-76
2024/02/21 04:15:44;;;;;;;1.42;1.33;;;8.60;99.90;;;;;;6101350;23;20018;-79
2024/02/21 04:18:10;;;;;;;0.80;0.80;;;8.70;99.90;;;;;;6125093;23;20028;-76
2024/02/21 04:20:35;;;;;;;3.35;2.25;;;8.60;99.90;;;;;;6101178;23;20479;-76
2024/02/21 04:23:01;;;;;;;0.75;0.75;;;8.70;99.90;;;;;;6101201;23;20013;-76
2024/02/21 04:25:27;;;;;;;0.55;0.55;;;8.70;99.90;;;;;;6125914;23;20025;-76
2024/02/21 04:27:53;;;;;;;1.42;1.05;;;8.60;99.90;;;;;;6125234;23;20026;-76
2024/02/21 04:30:18;;;;;;;0.57;0.57;;;8.60;99.90;;;;;;6100332;23;20020;-76
2024/02/21 04:32:44;;;;;;;1.85;1.75;;;8.70;99.90;;;;;;6099352;23;20010;-76
2024/02/21 04:35:10;;;;;;;0.40;0.40;;;8.70;99.90;;;;;;6100009;23;20474;-76
2024/02/21 04:37:35;;;;;;;0.50;0.50;;;8.70;99.90;;;;;;6100389;23;20482;-76
2024/02/21 04:40:01;;;;;;;1.00;0.77;;;8.70;99.90;;;;;;6123983;23;20025;-76
2024/02/21 04:42:27;;;;;;;2.90;0.65;;;8.70;99.90;;;;;;6099706;23;20020;-77
2024/02/21 04:44:53;;;;;;;17.77;3.00;;;8.70;99.90;;;;;;6099508;23;20021;-76
2024/02/21 04:47:19;;;;;;;0.43;0.43;;;8.70;99.90;;;;;;6100801;23;20028;-77
2024/02/21 04:49:45;;;;;;;0.63;0.63;;;8.70;99.90;;;;;;6101862;23;20014;-76
2024/02/21 04:52:11;;;;;;;;;;;8.70;99.90;;;;;;6101282;23;20451;-77
2024/02/21 04:54:37;;;;;;;0.45;0.45;;;8.70;99.90;;;;;;6101326;23;19916;-77
2024/02/21 04:57:03;;;;;;;0.57;0.57;;;8.70;99.90;;;;;;6125238;23;20014;-77
2024/02/21 04:59:29;;;;;;;0.35;0.35;;;8.70;99.90;;;;;;6101350;23;20017;-77
2024/02/21 05:01:55;;;;;;;0.40;0.40;;;8.70;99.90;;;;;;6124909;23;20032;-76
2024/02/21 05:04:21;;;;;;;1.67;1.48;;;8.70;99.90;;;;;;6125709;23;20475;-76
2024/02/21 05:06:46;;;;;;;0.73;0.73;;;8.70;99.90;;;;;;6100506;23;20093;-77
2024/02/21 05:09:12;;;;;;;1.40;1.40;;;8.70;99.90;;;;;;6125541;23;20017;-76
2024/02/21 05:11:38;;;;;;;0.88;0.88;;;8.70;99.90;;;;;;6100404;23;20440;-76
2024/02/21 05:14:04;;;;;;;;;;;8.60;99.90;;;;;;6101636;23;20108;-76
2024/02/21 05:16:30;;;;;;;0.50;0.50;;;8.70;99.90;;;;;;6152115;23;19959;-76
2024/02/21 05:18:57;;;;;;;0.73;0.73;;;8.60;99.90;;;;;;6120028;23;20033;-76
2024/02/21 05:21:23;;;;;;;;;;;8.60;99.90;;;;;;6097638;23;20030;-76
2024/02/21 05:23:49;;;;;;;2.67;1.25;;;8.60;99.90;;;;;;6100831;23;19919;-76
2024/02/21 05:26:24;;;;;;;;;;;8.60;99.90;;;;;;6125863;23;20490;-76
2024/02/21 05:28:50;;;;;;;1.27;1.17;;;8.60;99.90;;;;;;6124694;23;19920;-76
2024/02/21 05:31:17;;;;;;;0.40;0.40;;;8.60;99.90;;;;;;6101072;23;20391;-76
2024/02/21 05:33:44;;;;;;;0.73;0.73;;;8.60;99.90;;;;;;6150675;23;20451;-76
2024/02/21 05:36:10;;;;;;;1.58;1.58;;;8.60;99.90;;;;;;6124575;23;20509;-77
2024/02/21 05:38:36;;;;;;;0.47;0.47;;;8.60;99.90;;;;;;6125038;23;20100;-76
2024/02/21 05:41:01;;;;;;;;;;;8.60;99.90;;;;;;6100433;23;20021;-77
2024/02/21 05:43:27;;;;;;;0.50;0.50;;;8.60;99.90;;;;;;6100388;23;19912;-77
2024/02/21 05:45:53;;;;;;;0.70;0.70;;;8.60;99.90;;;;;;6100326;23;20017;-76
2024/02/21 05:48:20;;;;;;;0.57;0.57;;;8.60;99.90;;;;;;6124793;23;20029;-76
2024/02/21 05:50:46;;;;;;;0.47;0.47;;;8.60;99.90;;;;;;6100775;23;20013;-77
2024/02/21 05:53:12;;;;;;;0.65;0.65;;;8.60;99.90;;;;;;6099922;23;20497;-77
2024/02/21 05:55:38;;;;;;;;;;;8.60;99.90;;;;;;6101028;23;20013;-76
2024/02/21 05:58:05;;;;;;;0.50;0.50;;;8.60;99.90;;;;;;6124261;23;19917;-76
2024/02/21 06:00:32;;;;;;;0.88;0.88;;;8.60;99.90;;;;;;6100369;23;20017;-76
2024/02/21 06:02:57;;;;;;;0.43;0.43;;;8.60;99.90;;;;;;6099714;23;20017;-76
2024/02/21 06:05:23;;;;;;;0.47;0.47;;;8.60;99.90;;;;;;6125235;23;20139;-76
2024/02/21 06:07:49;;;;;;;0.30;0.30;;;8.60;99.90;;;;;;6100497;23;20139;-76
2024/02/21 06:10:15;;;;;;;1.50;1.45;;;8.60;99.90;;;;;;6124187;23;20350;-76
2024/02/21 06:12:41;;;;;;;2.92;2.17;;;8.60;99.90;;;;;;6124256;23;20014;-76
2024/02/21 06:15:07;;;;;;;0.43;0.43;;;8.60;99.90;;;;;;6124207;23;20459;-76
2024/02/21 06:17:32;;;;;;;0.63;0.63;;;8.60;99.90;;;;;;6124886;23;20032;-76
2024/02/21 06:19:58;;;;;;;1.80;1.70;;;8.60;99.90;;;;;;6124953;23;20352;-76
2024/02/21 06:22:24;;;;;;;0.50;0.50;;;8.60;99.90;;;;;;6100481;23;20013;-77
2024/02/21 06:24:50;;;;;;;3.67;3.40;;;8.50;99.90;;;;;;6101067;23;20021;-76
2024/02/21 06:27:16;;;;;;;;;;;8.60;99.90;;;;;;6100737;23;20036;-76
2024/02/21 06:29:42;;;;;;;0.43;0.43;;;8.50;99.90;;;;;;6124977;23;19924;-76
2024/02/21 06:32:08;;;;;;;0.30;0.30;;;8.50;99.90;;;;;;6124792;23;20049;-76
2024/02/21 06:34:33;;;;;;;0.77;0.77;;;8.50;99.90;;;;;;6125019;23;20068;-76
2024/02/21 06:36:59;;;;;;;0.70;0.70;;;8.60;99.90;;;;;;6148622;23;20013;-77
2024/02/21 06:39:25;;;;;;;0.80;0.80;;;8.50;99.90;;;;;;6099941;23;20013;-76
2024/02/21 06:41:51;;;;;;;0.52;0.52;;;8.60;99.90;;;;;;6124761;23;20506;-77
2024/02/21 06:44:17;;;;;;;0.50;0.50;;;8.50;99.90;;;;;;6150396;23;20013;-76
2024/02/21 06:46:43;;;;;;;0.70;0.70;;;8.50;99.90;;;;;;6125692;23;20025;-76
2024/02/21 06:49:09;;;;;;;0.85;0.85;;;8.50;99.90;;;;;;6123855;23;20104;-76
2024/02/21 06:51:36;;;;;;;0.45;0.45;;;8.60;99.90;;;;;;6075971;23;20049;-76
2024/02/21 06:54:02;;;;;;;0.50;0.50;;;8.60;99.90;;;;;;6125137;23;20014;-77
2024/02/21 06:56:28;;;;;;;0.68;0.68;;;8.50;99.90;;;;;;6125458;23;20013;-76
2024/02/21 06:58:57;;;;;;;;;;;8.50;99.90;;;;;;6103114;23;20032;-77
2024/02/21 07:01:26;;;;;;;1.38;0.93;;;8.60;99.90;;;;;;6152640;23;20421;-78
2024/02/21 07:03:52;;;;;;;0.55;0.55;;;8.60;99.90;;;;;;6148382;23;20048;-80
2024/02/21 07:06:17;;;;;;;0.90;0.90;;;8.40;99.90;;;;;;6125558;23;20315;-80
2024/02/21 07:08:43;;;;;;;0.47;0.47;;;8.50;99.90;;;;;;6126467;23;20025;-79
2024/02/21 07:11:09;;;;;;;0.38;0.38;;;8.50;99.90;;;;;;6125431;23;20100;-77
2024/02/21 07:13:34;;;;;;;0.60;0.60;;;8.40;99.90;;;;;;6152291;23;20017;-79
2024/02/21 07:16:00;;;;;;;0.55;0.55;;;8.50;99.90;;;;;;6125001;23;20013;-76
2024/02/21 07:18:26;;;;;;;0.82;0.82;;;8.50;99.90;;;;;;6097345;23;20037;-76
2024/02/21 07:20:52;;;;;;;0.40;0.40;;;8.50;99.90;;;;;;6102496;23;20026;-77
2024/02/21 07:23:18;;;;;;;1.10;1.10;;;8.60;99.90;;;;;;6152741;23;20025;-77
2024/02/21 07:25:44;;;;;;;0.60;0.60;;;8.60;99.90;;;;;;6126847;23;20009;-75
2024/02/21 07:28:10;;;;;;;0.60;0.60;;;8.50;99.90;;;;;;6125931;23;20107;-76
2024/02/21 07:30:36;;;;;;;0.90;0.90;;;8.50;99.90;;;;;;6102176;23;20406;-76
2024/02/21 07:33:07;;;;;;;0.73;0.73;;;8.50;99.90;;;;;;6102674;23;20017;-76
2024/02/21 07:35:32;;;;;;;0.60;0.60;;;8.40;99.90;;;;;;6125130;23;20041;-76
2024/02/21 07:37:58;;;;;;;1.40;1.23;;;8.50;99.90;;;;;;6101895;23;20079;-77
2024/02/21 07:40:24;;;;;;;0.93;0.93;;;8.50;99.90;;;;;;6152587;23;20018;-76
2024/02/21 07:42:50;;;;;;;0.40;0.40;;;8.50;99.90;;;;;;6127220;23;20013;-76
2024/02/21 07:45:16;;;;;;;0.93;0.93;;;8.60;99.90;;;;;;6125465;23;20511;-76
2024/02/21 07:47:41;;;;;;;0.77;0.77;;;8.50;99.90;;;;;;6102499;23;20018;-75
2024/02/21 07:50:08;;;;;;;0.68;0.68;;;8.50;99.90;;;;;;6124708;23;20021;-79
2024/02/21 07:52:33;;;;;;;;;;;8.50;99.90;;;;;;6127067;23;20018;-77
2024/02/21 07:54:59;;;;;;;1.73;1.67;;;8.60;99.90;;;;;;6101500;23;19919;-77
2024/02/21 07:57:25;;;;;;;0.70;0.70;;;8.60;99.90;;;;;;6125705;23;20013;-77
2024/02/21 07:59:51;;;;;;;0.50;0.50;;;8.60;99.90;;;;;;6151714;23;20459;-79
2024/02/21 08:02:16;;;;;;;16.45;2.20;;;8.60;99.90;;;;;;6125599;23;20023;-77
2024/02/21 08:04:43;;;;;;;0.55;0.55;;;8.60;99.90;;;;;;6151240;23;20025;-76
2024/02/21 08:07:09;;;;;;;;;;;8.70;99.90;;;;;;6126224;23;20439;-76
2024/02/21 08:09:36;;;;;;;0.50;0.50;;;8.70;99.90;;;;;;6101743;23;20266;-77
2024/02/21 08:12:02;;;;;;;0.95;0.88;;;8.70;99.90;;;;;;6103212;23;20017;-75
2024/02/21 08:14:27;;;;;;;0.50;0.50;;;8.70;99.90;;;;;;6151827;23;20021;-77
2024/02/21 08:16:55;;;;;;;0.60;0.60;;;8.70;99.90;;;;;;6126730;23;20467;-76
2024/02/21 08:19:21;;;;;;;0.75;0.75;;;8.70;99.90;;;;;;6099602;23;20331;-77
2024/02/21 08:21:46;;;;;;;0.40;0.40;;;8.70;99.90;;;;;;6126637;23;20010;-77
2024/02/21 08:24:15;;;;;;;0.47;0.47;;;8.70;99.90;;;;;;6153355;23;20024;-76
2024/02/21 08:26:42;;;;;;;0.38;0.38;;;8.70;99.90;;;;;;6127258;23;20055;-77
2024/02/21 08:29:08;;;;;;;0.50;0.50;;;8.80;99.90;;;;;;6101608;23;20072;-77
2024/02/21 08:31:34;;;;;;;0.38;0.38;;;8.70;99.90;;;;;;6152685;23;20018;-77
2024/02/21 08:34:03;;;;;;;0.40;0.40;;;8.70;99.90;;;;;;6100038;23;20014;-76
2024/02/21 08:36:34;;;;;;;4.25;2.90;;;8.80;99.90;;;;;;6125925;23;20456;-77
2024/02/21 08:39:01;;;;;;;0.43;0.43;;;8.80;99.90;;;;;;6150520;23;20013;-77
2024/02/21 08:41:26;;;;;;;0.60;0.60;;;8.80;99.90;;;;;;6125673;23;20018;-77
2024/02/21 08:43:53;;;;;;;1.10;1.05;;;8.80;99.90;;;;;;6152499;23;20028;-77
2024/02/21 08:46:20;;;;;;;0.40;0.40;;;8.90;99.90;;;;;;6101357;23;20021;-76
2024/02/21 08:48:47;;;;;;;0.50;0.50;;;8.90;99.90;;;;;;6124826;23;20021;-77
2024/02/21 08:51:13;;;;;;;2.80;2.60;;;8.90;99.90;;;;;;6151130;23;20024;-76
2024/02/21 08:53:39;;;;;;;;;;;8.90;99.90;;;;;;6102322;23;20045;-76
2024/02/21 08:56:07;;;;;;;0.32;0.32;;;8.90;99.90;;;;;;6151722;23;20318;-76
2024/02/21 08:58:33;;;;;;;0.50;0.50;;;8.90;99.90;;;;;;6124373;23;20349;-76
2024/02/21 09:00:59;;;;;;;;;;;8.90;99.90;;;;;;6101378;23;20013;-76
2024/02/21 09:03:25;;;;;;;2.47;1.45;;;8.90;99.90;;;;;;6099055;23;20261;-77
2024/02/21 09:05:50;;;;;;;0.65;0.65;;;8.90;99.90;;;;;;6125037;23;20028;-77
2024/02/21 09:08:16;;;;;;;0.50;0.50;;;8.90;99.90;;;;;;6124744;23;20053;-77
2024/02/21 09:10:42;;;;;;;2.83;0.88;;;8.90;99.90;;;;;;6100720;23;20089;-77
2024/02/21 09:13:08;;;;;;;0.50;0.50;;;8.90;99.90;;;;;;6125460;23;20021;-77
2024/02/21 09:15:34;;;;;;;0.60;0.60;;;9.00;99.90;;;;;;6150813;23;20016;-77
2024/02/21 09:18:00;;;;;;;0.30;0.30;;;8.90;99.90;;;;;;6125263;23;20033;-77
2024/02/21 09:20:26;;;;;;;0.63;0.63;;;9.00;99.90;;;;;;6098816;23;20526;-77
2024/02/21 09:22:52;;;;;;;0.43;0.43;;;9.00;99.90;;;;;;6151929;23;20028;-77
2024/02/21 09:25:18;;;;;;;1.35;1.25;;;9.00;99.90;;;;;;6125579;23;20096;-77
2024/02/21 09:27:45;;;;;;;1.17;0.90;;;9.00;99.90;;;;;;6151354;23;20093;-76
2024/02/21 09:30:11;;;;;;;0.63;0.63;;;9.00;99.90;;;;;;6125178;23;20133;-76
2024/02/21 09:32:38;;;;;;;1.98;1.80;;;9.00;99.90;;;;;;6100799;23;20013;-76
2024/02/21 09:35:05;;;;;;;0.77;0.77;;;9.00;99.90;;;;;;6124495;23;20023;-76
2024/02/21 09:37:31;;;;;;;0.65;0.65;;;9.00;99.90;;;;;;6100299;23;20390;-76
2024/02/21 09:39:57;;;;;;;0.77;0.77;;;9.00;99.90;;;;;;6125387;23;20475;-77
2024/02/21 09:42:38;;;;;;;0.40;0.40;;;9.10;99.90;;;;;;6151916;23;20021;-76
2024/02/21 09:45:12;;;;;;;1.15;0.88;;;9.10;99.90;;;;;;6101194;23;20056;-77
2024/02/21 09:48:08;;;;;;;2.05;1.92;;;9.10;99.90;;;;;;6125274;23;20025;-76
2024/02/21 09:50:40;;;;;;;0.52;0.43;;;9.10;99.90;;;;;;6149819;23;20021;-76
2024/02/21 09:53:07;;;;;;;1.60;1.52;;;9.10;99.90;;;;;;6151787;23;20010;-76
2024/02/21 09:55:39;;;;;;;;;;;9.10;99.90;;;;;;6100916;23;20092;-76
2024/02/21 09:58:07;;;;;;;0.65;0.57;;;9.10;99.90;;;;;;6125210;23;20002;-77
2024/02/21 10:00:33;;;;;;;0.70;0.70;;;9.10;99.90;;;;;;6124089;23;20024;-76
2024/02/21 10:02:59;;;;;;;;;;;9.10;99.90;;;;;;6077326;23;20019;-77
2024/02/21 10:05:25;;;;;;;1.58;1.48;;;9.10;99.90;;;;;;6122995;23;19913;-75
2024/02/21 10:07:51;;;;;;;;;;;9.10;99.90;;;;;;6125861;23;20021;-76
2024/02/21 10:10:19;;;;;;;0.52;0.52;;;9.10;99.90;;;;;;6125996;23;19936;-76
2024/02/21 10:12:54;;;;;;;3.47;0.85;;;9.10;99.90;;;;;;6125264;23;20021;-76
2024/02/21 10:15:24;;;;;;;0.70;0.70;;;9.20;99.90;;;;;;6101060;23;20021;-76
2024/02/21 10:17:58;;;;;;;2.05;1.30;;;9.20;99.90;;;;;;6151792;23;20083;-77
2024/02/21 10:20:24;;;;;;;1.48;1.38;;;9.20;99.90;;;;;;6123589;23;20021;-77
2024/02/21 10:23:13;;;;;;;0.47;0.47;;;9.30;99.90;;;;;;6124755;23;20028;-79
2024/02/21 10:25:41;;;;;;;0.47;0.47;;;9.30;99.90;;;;;;6149825;23;20017;-76
2024/02/21 10:28:07;;;;;;;0.70;0.70;;;9.30;99.90;;;;;;6151546;23;20021;-76
2024/02/21 10:30:33;;;;;;;1.38;0.57;;;9.40;99.90;;;;;;6099050;23;20018;-77
2024/02/21 10:32:58;;;;;;;1.70;1.63;;;9.40;99.90;;;;;;6125398;23;20017;-77
2024/02/21 10:35:32;;;;;;;1.23;0.90;;;9.40;99.90;;;;;;6098569;23;20068;-77
2024/02/21 10:37:58;;;;;;;1.02;1.00;;;9.40;99.90;;;;;;6150781;23;20021;-77
2024/02/21 10:40:25;;;;;;;1.17;1.00;;;9.40;99.90;;;;;;6100463;23;20410;-76
2024/02/21 10:42:58;;;;;;;2.70;1.95;;;9.40;99.90;;;;;;6100146;23;20017;-76
2024/02/21 10:45:34;;;;;;;1.45;1.35;;;9.40;99.90;;;;;;6100276;23;20149;-76
2024/02/21 10:48:12;;;;;;;2.03;1.85;;;9.40;99.90;;;;;;6124437;23;20017;-75
2024/02/21 10:51:01;;;;;;;1.25;0.88;;;9.40;99.90;;;;;;6149505;23;20113;-77
2024/02/21 10:53:55;;;;;;;5.57;2.33;;;9.30;99.90;;;;;;6124957;23;20014;-76
2024/02/21 10:56:30;;;;;;;0.93;0.93;;;9.40;99.90;;;;;;6151572;23;20444;-76
2024/02/21 10:58:58;;;;;;;1.17;1.15;;;9.40;99.90;;;;;;6100849;23;20025;-77
2024/02/21 11:01:24;;;;;;;1.88;1.77;;;9.40;99.90;;;;;;6150958;23;20017;-76
2024/02/21 11:03:54;;;;;;;1.92;1.08;;;9.50;99.90;;;;;;6123335;23;20022;-76
2024/02/21 11:06:21;;;;;;;0.55;0.55;;;;;;;;;;6151412;23;20135;-76
2024/02/21 11:08:49;;;;;;;2.45;2.03;;;9.60;99.90;;;;;;6123780;23;20114;-76
2024/02/21 11:11:17;;;;;;;3.20;1.33;;;9.80;99.90;;;;;;6125327;23;20122;-76
2024/02/21 11:13:43;;;;;;;1.23;1.15;;;9.90;99.90;;;;;;6123781;23;20017;-76
2024/02/21 11:16:22;;;;;;;1.50;1.40;;;10.00;99.90;;;;;;6124802;23;20013;-76
2024/02/21 11:18:48;;;;;;;1.20;1.17;;;10.10;99.90;;;;;;6097740;23;20032;-78
2024/02/21 11:21:13;;;;;;;2.92;1.65;;;10.10;99.90;;;;;;6125193;23;20030;-76
2024/02/21 11:23:39;;;;;;;2.05;1.08;;;10.20;99.90;;;;;;6124937;23;20017;-76
2024/02/21 11:26:19;;;;;;;0.47;0.47;;;10.20;99.90;;;;;;6125163;23;20351;-76
2024/02/21 11:28:45;;;;;;;2.25;1.67;;;10.20;99.90;;;;;;6150056;23;20402;-76
2024/02/21 11:31:14;;;;;;;0.80;0.80;;;10.30;99.90;;;;;;6124757;23;20048;-77
2024/02/21 11:33:43;;;;;;;3.83;1.95;;;10.20;99.90;;;;;;6123769;23;20115;-77
2024/02/21 11:36:10;;;;;;;1.70;1.50;;;10.20;99.90;;;;;;6124561;23;20012;-75
2024/02/21 11:38:36;;;;;;;1.48;1.38;;;10.20;99.90;;;;;;6124387;23;20084;-77
2024/02/21 11:41:02;;;;;;;;;;;10.20;99.90;;;;;;6126495;23;20024;-76
2024/02/21 11:43:28;;;;;;;0.55;0.55;;;10.20;99.90;;;;;;6126123;23;19987;-76
2024/02/21 11:46:01;;;;;;;1.73;1.45;;;10.20;99.90;;;;;;6125916;23;20056;-75
2024/02/21 11:48:27;;;;;;;1.25;1.25;;;10.20;99.90;;;;;;6126326;23;20018;-75
2024/02/21 11:50:54;;;;;;;0.43;0.43;;;10.20;99.90;;;;;;6101482;23;20053;-75
2024/02/21 11:53:21;;;;;;;0.73;0.73;;;10.10;99.90;;;;;;6151772;23;20038;-76
2024/02/21 11:55:47;;;;;;;1.13;1.13;;;10.10;99.90;;;;;;6125293;23;20028;-78
2024/02/21 11:58:12;;;;;;;2.60;1.48;;;10.10;99.90;;;;;;6125647;23;20025;-76
2024/02/21 12:00:38;;;;;;;2.05;1.95;;;10.00;99.90;;;;;;6150090;23;20013;-77
2024/02/21 12:03:05;;;;;;;0.57;0.57;;;10.00;99.90;;;;;;6125754;23;20397;-76
2024/02/21 12:05:31;;;;;;;0.80;0.77;;;9.90;99.90;;;;;;6100538;23;20301;-77
2024/02/21 12:07:58;;;;;;;1.98;1.13;;;9.90;99.90;;;;;;6100503;23;20048;-77
2024/02/21 12:10:26;;;;;;;1.85;1.02;;;9.90;99.90;;;;;;6078042;23;20495;-76
2024/02/21 12:12:52;;;;;;;1.65;0.82;;;9.90;99.90;;;;;;6125986;23;20017;-76
2024/02/21 12:15:18;;;;;;;1.27;0.90;;;9.90;99.90;;;;;;6125671;23;20019;-79
2024/02/21 12:17:45;;;;;;;0.95;0.95;;;9.90;99.90;;;;;;6101837;23;20013;-76
2024/02/21 12:20:11;;;;;;;;;;;9.90;99.90;;;;;;6125926;23;20478;-76
2024/02/21 12:22:38;;;;;;;0.80;0.80;;;9.90;99.90;;;;;;6151910;23;20235;-77
2024/02/21 12:25:07;;;;;;;4.35;1.48;;;9.90;99.90;;;;;;6152430;23;20025;-75
2024/02/21 12:27:33;;;;;;;0.32;0.32;;;9.90;99.90;;;;;;6126536;23;20101;-77
2024/02/21 12:29:59;;;;;;;0.30;0.30;;;9.90;99.90;;;;;;6101070;23;20048;-76
2024/02/21 12:32:24;;;;;;;0.85;0.73;;;9.90;99.90;;;;;;6101535;23;20064;-76
2024/02/21 12:34:50;;;;;;;0.50;0.50;;;10.00;99.90;;;;;;6099811;23;20514;-76
2024/02/21 12:37:16;;;;;;;0.55;0.55;;;10.00;99.90;;;;;;6126474;23;20014;-77
2024/02/21 12:39:42;;;;;;;0.47;0.47;;;10.00;99.90;;;;;;6126118;23;20096;-75
2024/02/21 12:42:09;;;;;;;1.08;0.98;;;10.00;99.90;;;;;;6152349;23;20021;-76
2024/02/21 12:44:35;;;;;;;0.52;0.52;;;10.10;99.90;;;;;;6125409;23;20045;-76
2024/02/21 12:47:01;;;;;;;0.95;0.95;;;10.10;99.90;;;;;;6101025;23;20007;-76
2024/02/21 12:49:29;;;;;;;0.85;0.82;;;10.20;99.90;;;;;;6125128;23;20108;-76
2024/02/21 12:51:55;;;;;;;0.50;0.50;;;10.10;99.90;;;;;;6151937;23;20020;-76
2024/02/21 12:54:21;;;;;;;0.65;0.65;;;10.10;99.90;;;;;;6101382;23;20025;-76
2024/02/21 12:56:47;;;;;;;;;;;10.10;99.90;;;;;;6152015;23;20014;-76
2024/02/21 12:59:13;;;;;;;0.85;0.85;;;10.10;99.90;;;;;;6125395;23;19975;-76
2024/02/21 13:01:39;;;;;;;1.33;1.30;;;10.00;99.90;;;;;;6151778;23;20024;-76